Time;durP1;ratioP1;P1;durP2;ratioP2;P2;SDS_P1;SDS_P2;PMS_P1;PMS_P2;Temp;Humidity;BMP_temperature;BMP_pressure;BME280_temperature;BME280_humidity;BME280_pressure;Samples;Min_cycle;Max_cycle;Signal;HPM_P1;HPM_P2
2022/06/07 00:00:20;;;;;;;7.77;6.97;;;17.80;1.00;;;;;;5088237;28;20643;-68
2022/06/07 00:02:46;;;;;;;7.57;6.87;;;17.80;1.00;;;;;;5087362;28;20507;-68
2022/06/07 00:05:12;;;;;;;8.23;7.43;;;17.90;1.00;;;;;;5088446;28;20189;-67
2022/06/07 00:07:37;;;;;;;7.57;6.87;;;17.90;1.00;;;;;;5087748;28;20165;-67
2022/06/07 00:10:04;;;;;;;8.60;7.60;;;17.90;1.00;;;;;;5088143;28;20262;-66
2022/06/07 00:12:30;;;;;;;7.80;7.20;;;17.90;11.40;;;;;;5088422;28;20200;-68
2022/06/07 00:14:55;;;;;;;8.57;7.87;;;17.70;99.90;;;;;;5076213;28;21091;-67
2022/06/07 00:17:22;;;;;;;8.90;8.00;;;17.70;99.90;;;;;;5068155;28;20783;-66
2022/06/07 00:19:47;;;;;;;10.33;8.20;;;17.70;1.00;;;;;;5067534;28;20213;-66
2022/06/07 00:22:13;;;;;;;8.70;7.30;;;17.70;1.00;;;;;;5067799;28;20497;-66
2022/06/07 00:24:39;;;;;;;8.20;7.40;;;17.70;1.00;;;;;;5080660;28;20548;-65
2022/06/07 00:27:05;;;;;;;7.47;6.77;;;17.70;99.90;;;;;;5088228;28;20523;-66
2022/06/07 00:29:31;;;;;;;8.83;7.70;;;17.70;99.90;;;;;;5087567;28;20213;-68
2022/06/07 00:31:58;;;;;;;8.17;7.50;;;17.70;99.90;;;;;;5089329;28;20424;-69
2022/06/07 00:34:24;;;;;;;8.00;7.07;;;17.80;99.90;;;;;;5092187;28;20607;-69
2022/06/07 00:36:50;;;;;;;9.17;8.33;;;17.80;99.90;;;;;;5091423;28;20403;-67
2022/06/07 00:39:15;;;;;;;8.33;7.53;;;17.80;99.90;;;;;;5092104;28;20280;-70
2022/06/07 00:41:41;;;;;;;8.60;7.70;;;17.80;99.90;;;;;;5092035;28;20683;-67
2022/06/07 00:44:24;;;;;;;8.33;7.53;;;17.80;99.90;;;;;;5092840;28;20173;-71
2022/06/07 00:46:59;;;;;;;8.00;7.27;;;17.90;99.90;;;;;;5092148;28;20212;-70
2022/06/07 00:49:26;;;;;;;9.20;7.40;;;17.90;27.10;;;;;;5091975;28;20426;-68
2022/06/07 00:51:52;;;;;;;40.90;9.30;;;17.90;1.00;;;;;;5090587;28;20423;-67
2022/06/07 00:54:20;;;;;;;17.07;9.40;;;17.90;1.00;;;;;;5071963;28;20465;-68
2022/06/07 00:56:45;;;;;;;8.70;7.90;;;17.80;72.40;;;;;;5071830;28;20404;-70
2022/06/07 00:59:11;;;;;;;6.83;6.20;;;17.80;99.90;;;;;;5071211;28;20431;-69
2022/06/07 01:01:37;;;;;;;8.23;7.30;;;17.80;99.90;;;;;;5090332;28;20205;-70
2022/06/07 01:04:03;;;;;;;7.50;6.70;;;17.70;99.90;;;;;;5091932;28;20169;-69
2022/06/07 01:11:56;;;;;;;7.30;6.70;;;17.80;19.90;;;;;;5091845;28;20458;-70
2022/06/07 01:14:22;;;;;;;6.87;6.17;;;17.80;99.90;;;;;;5084421;28;20440;-66
2022/06/07 01:16:48;;;;;;;6.80;6.20;;;17.80;99.90;;;;;;5071393;28;20588;-69
2022/06/07 01:19:13;;;;;;;7.30;6.60;;;17.80;99.90;;;;;;5070647;28;20639;-70
2022/06/07 01:21:45;;;;;;;11.07;7.10;;;17.80;99.90;;;;;;5070451;28;20297;-70
2022/06/07 01:24:13;;;;;;;9.07;6.73;;;17.80;1.00;;;;;;5080107;28;20203;-69
2022/06/07 01:26:39;;;;;;;6.33;5.73;;;17.80;99.90;;;;;;5091535;28;20843;-69
2022/06/07 01:29:05;;;;;;;6.70;6.20;;;17.90;99.90;;;;;;5090863;28;20513;-69
2022/06/07 01:31:31;;;;;;;6.50;5.90;;;17.80;6.50;;;;;;5091097;28;20495;-68
2022/06/07 01:33:57;;;;;;;8.73;6.33;;;17.80;1.00;;;;;;5091764;28;21034;-69
2022/06/07 01:36:23;;;;;;;6.80;6.20;;;17.90;66.80;;;;;;5091111;28;20495;-67
2022/06/07 01:41:53;;;;;;;7.10;6.40;;;18.00;1.00;;;;;;5088781;28;20305;-70
2022/06/07 01:44:18;;;;;;;7.70;7.00;;;17.90;99.90;;;;;;5090827;28;20462;-68
2022/06/07 01:46:44;;;;;;;7.13;6.53;;;17.90;1.00;;;;;;5090884;28;20801;-69
2022/06/07 01:49:10;;;;;;;7.87;6.90;;;17.80;86.70;;;;;;5090805;28;20185;-70
2022/06/07 01:51:35;;;;;;;8.73;7.47;;;17.80;71.00;;;;;;5090251;28;20196;-66
2022/06/07 01:54:01;;;;;;;7.30;6.70;;;17.70;1.00;;;;;;5091645;28;20189;-69
2022/06/07 01:56:27;;;;;;;7.47;6.00;;;17.70;91.10;;;;;;5091209;28;20503;-69
2022/06/07 01:58:52;;;;;;;8.33;7.03;;;17.70;1.00;;;;;;5091144;28;20242;-71
2022/06/07 02:01:18;;;;;;;6.70;6.13;;;17.70;1.00;;;;;;5092032;28;20166;-70
2022/06/07 02:03:44;;;;;;;4.77;4.37;;;17.60;1.00;;;;;;5092637;28;20177;-71
2022/06/07 02:06:12;;;;;;;8.20;4.73;;;17.60;50.10;;;;;;5093444;28;20751;-70
2022/06/07 02:08:40;;;;;;;4.80;4.40;;;17.50;1.00;;;;;;5091194;28;20261;-71
2022/06/07 02:11:21;;;;;;;8.10;5.03;;;17.50;1.00;;;;;;5091733;28;20468;-66
2022/06/07 02:13:47;;;;;;;5.53;4.33;;;17.50;1.00;;;;;;5093564;28;20482;-70
2022/06/07 02:16:13;;;;;;;4.40;4.00;;;17.40;99.90;;;;;;5085415;28;20745;-68
2022/06/07 02:18:40;;;;;;;5.33;3.60;;;17.40;99.90;;;;;;5093824;28;20221;-69
2022/06/07 02:21:06;;;;;;;4.07;3.67;;;17.30;1.00;;;;;;5096958;28;20411;-71
2022/06/07 02:23:33;;;;;;;4.20;3.80;;;17.30;1.00;;;;;;5098429;28;20407;-69
2022/06/07 02:26:03;;;;;;;5.50;3.23;;;17.20;18.40;;;;;;5098031;28;20407;-69
2022/06/07 02:28:32;;;;;;;4.20;3.20;;;17.20;92.50;;;;;;5096423;28;20424;-71
2022/06/07 02:30:58;;;;;;;4.60;3.80;;;17.20;1.00;;;;;;5095418;28;20404;-70
2022/06/07 02:33:26;;;;;;;5.20;3.30;;;17.10;1.00;;;;;;5090275;28;20444;-69
2022/06/07 02:35:52;;;;;;;4.80;3.87;;;17.10;99.90;;;;;;5089714;28;20744;-67
2022/06/07 02:38:18;;;;;;;4.10;3.70;;;17.10;1.00;;;;;;5088822;28;20605;-70
2022/06/07 02:40:46;;;;;;;3.87;3.57;;;17.20;1.00;;;;;;5089976;28;20419;-69
2022/06/07 02:43:12;;;;;;;5.07;3.80;;;17.10;99.90;;;;;;5090042;28;20404;-70
2022/06/07 02:45:38;;;;;;;6.17;3.40;;;17.10;1.00;;;;;;5089770;28;20470;-68
2022/06/07 02:48:04;;;;;;;3.90;3.30;;;17.20;1.00;;;;;;5090062;28;20188;-68
2022/06/07 02:50:30;;;;;;;3.33;3.03;;;17.20;99.90;;;;;;5087960;28;20268;-69
2022/06/07 02:52:56;;;;;;;3.53;3.07;;;17.20;1.00;;;;;;5089518;28;21032;-69
2022/06/07 02:55:21;;;;;;;9.90;3.50;;;17.20;1.00;;;;;;5089204;28;20193;-70
2022/06/07 02:57:47;;;;;;;4.57;3.17;;;17.20;1.00;;;;;;5089641;28;20552;-69
2022/06/07 03:00:15;;;;;;;4.00;3.23;;;17.10;99.90;;;;;;5089052;28;20193;-69
2022/06/07 03:02:42;;;;;;;8.43;3.93;;;17.20;99.90;;;;;;5088753;28;20623;-70
2022/06/07 03:05:10;;;;;;;5.50;4.30;;;17.10;99.90;;;;;;5089384;28;20412;-70
2022/06/07 03:07:37;;;;;;;20.83;4.30;;;17.00;1.00;;;;;;5089131;28;20735;-67
2022/06/07 03:10:03;;;;;;;8.17;4.07;;;17.00;1.00;;;;;;5088975;28;20442;-68
2022/06/07 03:12:28;;;;;;;6.53;3.23;;;17.00;1.00;;;;;;5089950;28;20464;-69
2022/06/07 03:14:54;;;;;;;6.00;3.73;;;16.90;99.90;;;;;;5078192;28;20460;-70
2022/06/07 03:17:20;;;;;;;3.10;2.70;;;16.90;99.90;;;;;;5069231;28;20181;-70
2022/06/07 03:19:45;;;;;;;4.83;3.70;;;16.90;99.90;;;;;;5068762;28;20182;-69
2022/06/07 03:22:12;;;;;;;9.70;3.60;;;16.90;99.90;;;;;;5069163;28;20194;-69
2022/06/07 03:24:38;;;;;;;11.83;3.30;;;16.90;99.90;;;;;;5082343;28;20181;-69
2022/06/07 03:27:04;;;;;;;6.53;4.10;;;16.80;99.90;;;;;;5089611;28;20822;-70
2022/06/07 03:29:30;;;;;;;5.17;2.80;;;16.80;99.90;;;;;;5089082;28;20185;-70
2022/06/07 03:31:55;;;;;;;5.00;3.17;;;16.80;1.00;;;;;;5089753;28;20177;-69
2022/06/07 03:34:21;;;;;;;7.13;3.50;;;16.80;1.00;;;;;;5089357;28;20208;-68
2022/06/07 03:36:46;;;;;;;5.20;3.40;;;16.90;1.00;;;;;;5088619;28;20178;-71
2022/06/07 03:39:12;;;;;;;3.73;2.90;;;16.90;99.90;;;;;;5088339;28;20233;-71
2022/06/07 03:41:38;;;;;;;5.47;2.70;;;16.90;99.90;;;;;;5089677;28;20212;-71
2022/06/07 03:44:05;;;;;;;5.93;3.10;;;16.70;99.90;;;;;;5089628;28;20169;-71
2022/06/07 03:46:32;;;;;;;5.53;3.00;;;16.80;1.00;;;;;;5089356;28;20161;-69
2022/06/07 03:48:59;;;;;;;3.20;2.40;;;16.90;99.90;;;;;;5088787;28;20717;-68
2022/06/07 03:51:28;;;;;;;3.90;3.03;;;16.90;99.90;;;;;;5088525;28;20416;-64
2022/06/07 03:53:54;;;;;;;2.90;2.60;;;16.80;99.90;;;;;;5072412;28;20452;-69
2022/06/07 03:56:23;;;;;;;3.90;3.10;;;16.70;1.00;;;;;;5069376;28;20408;-71
2022/06/07 03:58:50;;;;;;;5.17;3.30;;;16.70;1.00;;;;;;5068006;28;20783;-67
2022/06/07 04:01:17;;;;;;;7.40;2.90;;;16.80;99.90;;;;;;5084535;28;20447;-67
2022/06/07 04:03:44;;;;;;;9.30;3.10;;;16.80;1.00;;;;;;5089040;28;20579;-68
2022/06/07 04:06:33;;;;;;;5.40;3.13;;;16.80;1.00;;;;;;5089975;28;20418;-65
2022/06/07 04:08:59;;;;;;;7.53;3.27;;;16.80;1.00;;;;;;5092563;28;20434;-68
2022/06/07 04:11:27;;;;;;;3.03;2.70;;;16.70;1.00;;;;;;5093254;28;20434;-67
2022/06/07 04:13:54;;;;;;;8.77;5.80;;;16.80;99.90;;;;;;5090085;28;20483;-64
2022/06/07 04:16:22;;;;;;;2.60;2.40;;;16.80;1.00;;;;;;5072476;28;20409;-69
2022/06/07 04:18:48;;;;;;;3.60;3.23;;;16.80;1.00;;;;;;5070298;28;20432;-69
2022/06/07 04:21:15;;;;;;;8.87;3.57;;;16.80;99.90;;;;;;5072162;28;20821;-68
2022/06/07 04:23:41;;;;;;;3.03;2.73;;;16.90;1.00;;;;;;5076925;28;20506;-69
2022/06/07 04:26:12;;;;;;;4.70;2.90;;;16.80;1.00;;;;;;5091395;28;20518;-69
2022/06/07 04:28:38;;;;;;;3.50;2.47;;;16.80;94.40;;;;;;5091679;28;20556;-69
2022/06/07 04:31:10;;;;;;;2.77;2.57;;;16.80;1.00;;;;;;5091857;28;20447;-70
2022/06/07 04:33:36;;;;;;;4.00;3.30;;;16.80;99.90;;;;;;5092409;28;20324;-69
2022/06/07 04:36:03;;;;;;;4.00;3.17;;;16.80;99.90;;;;;;5092051;28;20526;-68
2022/06/07 04:38:29;;;;;;;6.53;3.33;;;16.80;99.90;;;;;;5090135;28;20240;-67
2022/06/07 04:40:55;;;;;;;9.87;3.53;;;16.80;99.90;;;;;;5091661;28;20415;-68
2022/06/07 04:43:21;;;;;;;4.63;2.93;;;16.80;99.90;;;;;;5073946;28;20484;-69
2022/06/07 04:45:48;;;;;;;4.97;3.27;;;16.80;99.90;;;;;;5089375;28;20177;-68
2022/06/07 04:48:14;;;;;;;3.80;2.80;;;16.90;99.90;;;;;;5085535;28;20654;-66
2022/06/07 04:50:39;;;;;;;8.97;3.37;;;16.90;99.90;;;;;;5090366;28;20415;-69
2022/06/07 04:53:05;;;;;;;5.03;3.30;;;16.80;99.90;;;;;;5089827;28;20213;-68
2022/06/07 04:55:30;;;;;;;3.60;2.90;;;16.90;99.90;;;;;;5089474;28;20201;-67
2022/06/07 04:57:56;;;;;;;3.70;3.40;;;16.80;99.90;;;;;;5089649;28;20176;-69
2022/06/07 05:00:22;;;;;;;5.53;3.90;;;16.80;99.90;;;;;;5089438;28;20277;-66
2022/06/07 05:02:48;;;;;;;13.07;3.50;;;16.80;99.90;;;;;;5079528;28;20234;-72
2022/06/07 05:05:15;;;;;;;9.93;3.33;;;16.80;40.90;;;;;;5094623;28;20583;-71
2022/06/07 05:07:41;;;;;;;12.07;3.33;;;17.00;1.00;;;;;;5090275;28;20518;-72
2022/06/07 05:10:12;;;;;;;8.33;3.00;;;16.90;1.00;;;;;;5090570;28;20534;-70
2022/06/07 05:12:38;;;;;;;4.63;2.97;;;17.00;1.00;;;;;;5091199;28;20193;-70
2022/06/07 05:15:05;;;;;;;6.70;3.50;;;16.90;1.00;;;;;;5091059;28;20550;-70
2022/06/07 05:17:31;;;;;;;28.27;6.83;;;17.00;99.90;;;;;;5086278;28;20166;-70
2022/06/07 05:19:58;;;;;;;16.47;3.80;;;17.00;31.90;;;;;;5077328;28;20432;-69
2022/06/07 05:22:24;;;;;;;8.70;3.10;;;17.00;14.70;;;;;;5079199;28;20223;-69
2022/06/07 05:24:50;;;;;;;14.93;4.10;;;17.00;20.70;;;;;;5084735;28;20423;-69
2022/06/07 05:27:20;;;;;;;116.47;11.27;;;17.00;22.40;;;;;;5090406;28;20924;-70
2022/06/07 05:29:54;;;;;;;18.73;4.10;;;17.00;1.00;;;;;;5088708;28;20439;-69
2022/06/07 05:32:20;;;;;;;20.83;4.00;;;16.90;1.00;;;;;;5088450;28;20852;-70
2022/06/07 05:34:46;;;;;;;17.73;4.27;;;16.90;1.00;;;;;;5086425;28;21063;-70
2022/06/07 05:37:18;;;;;;;4.07;2.70;;;16.80;99.90;;;;;;5086635;28;20449;-68
2022/06/07 05:39:45;;;;;;;4.90;3.70;;;16.80;99.90;;;;;;5087399;28;20278;-69
2022/06/07 05:42:12;;;;;;;7.93;4.93;;;16.80;99.90;;;;;;5088690;28;20439;-69
2022/06/07 05:44:38;;;;;;;3.20;2.80;;;16.80;99.90;;;;;;5086292;28;20431;-68
2022/06/07 05:47:05;;;;;;;5.50;3.43;;;16.70;1.00;;;;;;5088210;28;21038;-69
2022/06/07 05:49:31;;;;;;;29.40;4.83;;;16.70;1.00;;;;;;5088081;28;21121;-70
2022/06/07 05:51:57;;;;;;;13.07;4.73;;;16.50;1.00;;;;;;5087613;28;20488;-71
2022/06/07 05:54:23;;;;;;;5.73;3.73;;;16.50;1.00;;;;;;5089278;28;20583;-71
2022/06/07 05:56:49;;;;;;;3.57;2.67;;;16.60;99.90;;;;;;5088907;28;20420;-72
2022/06/07 05:59:15;;;;;;;3.97;3.50;;;16.40;1.00;;;;;;5088127;28;20435;-72
2022/06/07 06:01:41;;;;;;;11.40;4.37;;;16.30;1.00;;;;;;5087694;28;20408;-71
2022/06/07 06:04:08;;;;;;;4.83;2.70;;;16.30;14.00;;;;;;5088916;28;20934;-71
2022/06/07 06:06:35;;;;;;;6.37;2.57;;;16.30;1.00;;;;;;5088031;28;20185;-70
2022/06/07 06:11:46;;;;;;;4.50;2.67;;;16.20;1.00;;;;;;5089170;28;20466;-70
2022/06/07 06:14:12;;;;;;;4.87;2.80;;;16.10;1.00;;;;;;5087846;28;20485;-71
2022/06/07 06:16:37;;;;;;;2.93;2.50;;;16.10;99.90;;;;;;5080295;28;20172;-71
2022/06/07 06:19:03;;;;;;;3.40;2.30;;;16.10;1.00;;;;;;5087552;28;20200;-70
2022/06/07 06:21:34;;;;;;;3.60;3.30;;;16.00;99.90;;;;;;5087657;28;20569;-69
2022/06/07 06:24:00;;;;;;;3.03;2.73;;;16.10;1.00;;;;;;5088731;28;20901;-71
2022/06/07 06:26:27;;;;;;;3.83;2.67;;;16.20;99.90;;;;;;5087420;28;20410;-69
2022/06/07 06:28:54;;;;;;;4.33;2.70;;;16.30;66.90;;;;;;5087782;28;20447;-70
2022/06/07 06:31:20;;;;;;;3.10;2.40;;;16.20;1.00;;;;;;5088116;28;20478;-69
2022/06/07 06:33:49;;;;;;;3.20;2.20;;;16.40;99.90;;;;;;5088325;28;20435;-68
2022/06/07 06:36:18;;;;;;;3.10;2.10;;;16.20;4.50;;;;;;5085881;28;20412;-69
2022/06/07 06:38:44;;;;;;;3.00;2.20;;;16.10;19.20;;;;;;5087307;28;20795;-69
2022/06/07 06:41:22;;;;;;;6.93;3.27;;;16.10;1.00;;;;;;5087686;28;20806;-72
2022/06/07 06:43:49;;;;;;;2.47;2.07;;;16.10;1.00;;;;;;5087767;28;20458;-67
2022/06/07 06:46:19;;;;;;;2.87;2.47;;;16.10;99.90;;;;;;5087666;28;20783;-70
2022/06/07 06:48:44;;;;;;;2.43;1.73;;;16.30;1.00;;;;;;5088259;28;20461;-69
2022/06/07 06:51:13;;;;;;;3.57;1.73;;;16.30;1.00;;;;;;5087385;28;20424;-69
2022/06/07 06:53:42;;;;;;;6.30;1.90;;;16.30;1.00;;;;;;5089938;28;20783;-70
2022/06/07 06:56:11;;;;;;;10.13;2.00;;;16.10;99.90;;;;;;5090442;28;20943;-70
2022/06/07 06:58:38;;;;;;;2.00;1.73;;;16.00;99.90;;;;;;5089826;28;20530;-70
2022/06/07 07:01:08;;;;;;;4.37;2.43;;;16.00;1.00;;;;;;5089288;28;20414;-69
2022/06/07 07:03:35;;;;;;;5.10;1.77;;;16.00;99.90;;;;;;5070167;28;20470;-70
2022/06/07 07:06:04;;;;;;;3.90;1.90;;;16.10;99.90;;;;;;5069215;28;20789;-72
2022/06/07 07:08:29;;;;;;;3.80;1.80;;;16.00;99.90;;;;;;5068857;28;20432;-74
2022/06/07 07:11:06;;;;;;;7.03;2.83;;;16.00;99.90;;;;;;5070522;28;21266;-72
2022/06/07 07:13:31;;;;;;;4.63;2.13;;;15.90;99.90;;;;;;5069159;28;22140;-72
2022/06/07 07:15:57;;;;;;;4.70;2.10;;;15.70;91.20;;;;;;5089839;28;20495;-72
2022/06/07 07:18:24;;;;;;;3.63;2.00;;;16.00;99.90;;;;;;5090075;28;20174;-72
2022/06/07 07:20:50;;;;;;;6.53;2.10;;;16.10;99.90;;;;;;5090508;28;20180;-71
2022/06/07 07:23:16;;;;;;;5.70;2.67;;;16.50;99.90;;;;;;5090521;28;20888;-70
2022/06/07 07:25:42;;;;;;;5.80;3.00;;;16.70;6.20;;;;;;5090348;28;21015;-70
2022/06/07 07:28:08;;;;;;;10.27;3.37;;;16.80;1.00;;;;;;5090079;28;20852;-72
2022/06/07 07:30:34;;;;;;;5.20;3.60;;;17.20;1.00;;;;;;5089809;28;20419;-70
2022/06/07 07:33:00;;;;;;;5.20;3.67;;;17.30;1.00;;;;;;5090950;28;20245;-69
2022/06/07 07:35:26;;;;;;;6.10;3.90;;;18.00;99.90;;;;;;5090261;28;20281;-68
2022/06/07 07:37:52;;;;;;;7.03;4.30;;;18.90;1.00;;;;;;5090092;28;20177;-70
2022/06/07 07:40:18;;;;;;;5.23;4.13;;;19.70;1.00;;;;;;5098294;28;20473;-72
2022/06/07 07:42:43;;;;;;;3.80;3.40;;;20.30;1.00;;;;;;5105510;28;20925;-71
2022/06/07 07:45:10;;;;;;;10.43;3.20;;;20.10;1.00;;;;;;5088946;28;20178;-72
2022/06/07 07:47:36;;;;;;;8.83;3.00;;;20.20;1.00;;;;;;5089348;28;20507;-70
2022/06/07 07:50:03;;;;;;;5.40;3.17;;;19.90;1.00;;;;;;5086538;28;20436;-68
2022/06/07 07:52:28;;;;;;;3.77;2.77;;;20.50;1.00;;;;;;5077081;28;20261;-71
2022/06/07 07:54:54;;;;;;;3.20;2.93;;;20.20;99.90;;;;;;5082307;28;20596;-71
2022/06/07 07:57:20;;;;;;;5.50;2.53;;;19.90;99.90;;;;;;5088787;28;20604;-73
2022/06/07 07:59:46;;;;;;;8.70;2.87;;;19.90;99.90;;;;;;5084664;28;20186;-71
2022/06/07 08:02:17;;;;;;;7.87;4.00;;;20.50;99.90;;;;;;5069449;28;20173;-71
2022/06/07 08:04:43;;;;;;;8.33;3.37;;;20.60;99.90;;;;;;5068065;28;20178;-70
2022/06/07 08:07:08;;;;;;;4.13;2.90;;;20.70;99.90;;;;;;5067746;28;20439;-70
2022/06/07 08:09:34;;;;;;;5.57;3.27;;;20.50;99.90;;;;;;5068596;28;20201;-73
2022/06/07 08:12:05;;;;;;;3.30;2.50;;;20.80;99.90;;;;;;5079753;28;20182;-72
2022/06/07 08:14:32;;;;;;;3.93;2.50;;;21.30;99.90;;;;;;5082322;28;20201;-72
2022/06/07 08:16:58;;;;;;;6.33;3.00;;;21.30;99.90;;;;;;5089048;28;20435;-73
2022/06/07 08:19:24;;;;;;;4.00;2.93;;;21.60;99.90;;;;;;5089355;28;20503;-72
2022/06/07 08:21:50;;;;;;;5.77;2.70;;;21.70;99.90;;;;;;5088171;28;20446;-70
2022/06/07 08:24:19;;;;;;;4.00;2.53;;;22.10;99.90;;;;;;5088977;28;20451;-71
2022/06/07 08:26:48;;;;;;;4.53;2.30;;;22.60;99.90;;;;;;5089393;28;20201;-71
2022/06/07 08:29:15;;;;;;;5.10;2.40;;;21.70;99.90;;;;;;5088073;28;20435;-72
2022/06/07 08:31:41;;;;;;;4.43;2.60;;;21.90;99.90;;;;;;5089009;28;20422;-71
2022/06/07 08:39:37;;;;;;;3.20;2.20;;;24.40;99.90;;;;;;5089191;28;20482;-73
2022/06/07 08:42:26;;;;;;;4.03;2.90;;;25.90;99.90;;;;;;5089962;28;20717;-75
2022/06/07 08:45:16;;;;;;;3.63;2.97;;;26.30;99.90;;;;;;5088254;28;20426;-73
2022/06/07 08:47:46;;;;;;;3.40;2.40;;;25.90;99.90;;;;;;5088338;28;20551;-73
2022/06/07 08:50:26;;;;;;;2.20;2.00;;;24.00;99.90;;;;;;5087791;28;20485;-76
2022/06/07 08:52:59;;;;;;;4.90;2.53;;;23.00;99.90;;;;;;5089507;28;20435;-73
2022/06/07 08:55:36;;;;;;;5.37;3.27;;;22.30;99.90;;;;;;5093200;28;20443;-74
2022/06/07 08:58:22;;;;;;;4.93;2.40;;;22.20;99.90;;;;;;5092795;28;20418;-76
2022/06/07 09:00:52;;;;;;;2.80;2.00;;;23.20;99.90;;;;;;5092003;28;20404;-73
2022/06/07 09:03:39;;;;;;;6.27;3.33;;;23.90;99.90;;;;;;5092224;28;20418;-75
2022/06/07 09:06:16;;;;;;;7.53;3.10;;;24.90;99.90;;;;;;5092546;28;20883;-76
2022/06/07 09:08:52;;;;;;;10.00;2.57;;;25.40;99.90;;;;;;5092244;28;20422;-72
2022/06/07 09:14:29;;;;;;;2.50;2.20;;;27.60;99.90;;;;;;5091898;28;20469;-70
2022/06/07 09:16:56;;;;;;;2.87;2.57;;;27.20;99.90;;;;;;5083448;28;20403;-72
2022/06/07 09:19:28;;;;;;;4.37;2.30;;;27.40;99.90;;;;;;5088445;28;20903;-74
2022/06/07 09:22:01;;;;;;;4.90;2.37;;;27.40;99.90;;;;;;5092382;28;20384;-74
2022/06/07 09:24:42;;;;;;;3.90;2.57;;;27.00;99.90;;;;;;5091714;28;20859;-73
2022/06/07 09:27:23;;;;;;;6.17;2.50;;;26.40;99.90;;;;;;5092256;28;20411;-72
2022/06/07 09:30:02;;;;;;;12.33;3.10;;;26.50;99.90;;;;;;5094780;28;20439;-74
2022/06/07 09:32:32;;;;;;;4.60;2.47;;;26.00;99.90;;;;;;5093293;28;20828;-72
2022/06/07 09:35:02;;;;;;;3.20;2.37;;;25.10;99.90;;;;;;5102944;28;20427;-71
2022/06/07 09:37:45;;;;;;;3.00;2.07;;;25.20;99.90;;;;;;5111672;28;20410;-71
2022/06/07 09:40:36;;;;;;;3.80;2.50;;;25.20;99.90;;;;;;5097816;28;20443;-73
2022/06/07 09:43:08;;;;;;;6.13;3.10;;;25.60;99.90;;;;;;5108235;28;20480;-72
2022/06/07 09:45:51;;;;;;;3.13;2.40;;;25.60;99.90;;;;;;5102140;28;20385;-71
2022/06/07 09:48:27;;;;;;;6.60;3.27;;;25.90;99.90;;;;;;5101134;28;20400;-72
2022/06/07 09:51:14;;;;;;;2.60;2.20;;;26.60;99.90;;;;;;5093272;28;20457;-74
2022/06/07 09:53:47;;;;;;;10.80;3.73;;;27.80;99.90;;;;;;5091180;28;20489;-72
2022/06/07 09:57:01;;;;;;;6.93;2.87;;;28.40;99.90;;;;;;5092035;28;20424;-71
2022/06/07 09:59:30;;;;;;;6.17;2.37;;;28.30;99.90;;;;;;5085054;28;20516;-73
2022/06/07 10:02:18;;;;;;;4.70;1.97;;;28.10;99.90;;;;;;5090459;28;20415;-70
2022/06/07 10:04:58;;;;;;;10.77;2.57;;;27.30;99.90;;;;;;5090008;28;20417;-72
2022/06/07 10:07:47;;;;;;;3.83;2.57;;;28.20;99.90;;;;;;5090173;28;20430;-70
2022/06/07 10:10:34;;;;;;;11.17;3.17;;;29.00;99.90;;;;;;5079292;28;20439;-70
2022/06/07 10:13:15;;;;;;;6.70;2.90;;;28.70;99.90;;;;;;5090664;28;20817;-69
2022/06/07 10:15:59;;;;;;;3.10;2.80;;;27.60;99.90;;;;;;5072475;28;20479;-70
2022/06/07 10:19:02;;;;;;;3.13;2.80;;;26.80;99.90;;;;;;5069919;28;20483;-71
2022/06/07 10:22:02;;;;;;;2.80;2.60;;;25.60;99.90;;;;;;5070483;28;20428;-70
2022/06/07 10:24:39;;;;;;;3.53;2.90;;;24.00;99.90;;;;;;5081646;28;20915;-69
2022/06/07 10:27:08;;;;;;;3.50;2.97;;;24.00;99.90;;;;;;5091543;28;20403;-69
2022/06/07 10:30:01;;;;;;;3.37;2.47;;;23.80;99.90;;;;;;5090079;28;20415;-72
2022/06/07 10:33:02;;;;;;;3.87;3.17;;;24.30;99.90;;;;;;5090943;28;20487;-70
2022/06/07 10:35:50;;;;;;;4.50;3.20;;;24.20;99.90;;;;;;5065577;28;20467;-73
2022/06/07 10:38:40;;;;;;;7.97;3.43;;;23.60;99.90;;;;;;5080059;28;20492;-72
2022/06/07 10:41:22;;;;;;;5.60;3.20;;;23.20;99.90;;;;;;5093025;28;20384;-73
2022/06/07 10:43:56;;;;;;;3.60;3.10;;;23.30;99.90;;;;;;5094021;28;20391;-71
2022/06/07 10:46:22;;;;;;;4.73;3.40;;;24.00;99.90;;;;;;5098700;28;20396;-71
2022/06/07 10:49:08;;;;;;;4.30;3.90;;;24.30;99.90;;;;;;5100747;28;20424;-70
2022/06/07 10:54:27;;;;;;;14.83;7.40;;;25.60;99.90;;;;;;5083624;28;20439;-73
2022/06/07 10:57:18;;;;;;;3.80;2.97;;;26.20;99.90;;;;;;5081347;28;20408;-73
2022/06/07 10:59:44;;;;;;;19.13;5.13;;;26.20;99.90;;;;;;5068980;28;20440;-71
2022/06/07 11:02:45;;;;;;;2.70;2.43;;;25.50;99.90;;;;;;5078005;28;20694;-66
2022/06/07 11:11:08;;;;;;;4.80;2.83;;;28.00;99.90;;;;;;5089675;28;20406;-72
2022/06/07 11:14:00;;;;;;;3.67;2.90;;;27.70;99.90;;;;;;5089874;28;20407;-69
2022/06/07 11:16:44;;;;;;;3.60;3.30;;;27.50;99.90;;;;;;5068701;28;20451;-71
2022/06/07 11:19:10;;;;;;;3.90;2.80;;;26.80;99.90;;;;;;5068828;28;20434;-69
2022/06/07 11:21:43;;;;;;;5.70;3.03;;;26.90;99.90;;;;;;5068505;28;20979;-71
2022/06/07 11:24:16;;;;;;;4.33;2.83;;;27.60;99.90;;;;;;5078116;28;20523;-70
2022/06/07 11:26:51;;;;;;;6.13;2.60;;;27.90;99.90;;;;;;5089354;28;20415;-71
2022/06/07 11:29:32;;;;;;;3.47;2.57;;;28.00;99.90;;;;;;5088586;28;20430;-69
2022/06/07 11:32:00;;;;;;;4.20;1.83;;;28.00;99.90;;;;;;5089437;28;20470;-72
2022/06/07 11:34:31;;;;;;;15.53;2.33;;;28.00;99.90;;;;;;5089113;28;20454;-70
2022/06/07 11:37:07;;;;;;;55.83;6.60;;;27.20;97.50;;;;;;5087974;28;20426;-72
2022/06/07 11:39:39;;;;;;;2.27;1.70;;;25.70;95.10;;;;;;5088520;28;20470;-70
2022/06/07 11:42:07;;;;;;;9.37;2.73;;;25.20;95.60;;;;;;5089258;28;20782;-69
2022/06/07 11:45:18;;;;;;;6.73;2.60;;;25.30;96.90;;;;;;5088517;28;20497;-71
2022/06/07 11:47:43;;;;;;;3.07;2.27;;;25.60;98.90;;;;;;5088306;28;20499;-71
2022/06/07 11:50:28;;;;;;;18.47;3.03;;;25.90;99.60;;;;;;5087986;28;20499;-73
2022/06/07 11:52:59;;;;;;;7.10;1.70;;;25.90;99.50;;;;;;5088839;28;20641;-72
2022/06/07 11:55:29;;;;;;;6.47;2.33;;;25.70;98.40;;;;;;5089056;28;20867;-71
2022/06/07 11:57:56;;;;;;;14.03;3.23;;;25.50;98.80;;;;;;5089185;28;20853;-73
2022/06/07 12:00:22;;;;;;;3.13;1.90;;;25.40;99.90;;;;;;5086629;28;20450;-70
2022/06/07 12:02:56;;;;;;;22.27;3.33;;;25.10;99.70;;;;;;5089198;28;20480;-74
2022/06/07 12:05:55;;;;;;;5.03;2.13;;;25.60;99.90;;;;;;5088675;28;20552;-70
2022/06/07 12:08:24;;;;;;;6.40;1.90;;;26.20;98.90;;;;;;5087797;28;20442;-71
2022/06/07 12:11:21;;;;;;;19.03;2.83;;;26.40;98.40;;;;;;5088641;28;20761;-71
2022/06/07 12:13:56;;;;;;;8.03;2.17;;;26.50;97.30;;;;;;5082424;28;20821;-69
2022/06/07 12:16:33;;;;;;;5.90;2.43;;;26.20;95.70;;;;;;5076149;28;20417;-71
2022/06/07 12:19:02;;;;;;;2.80;2.17;;;25.60;95.10;;;;;;5067943;28;20514;-71
2022/06/07 12:21:32;;;;;;;2.20;2.00;;;25.60;96.00;;;;;;5066731;28;20727;-71
2022/06/07 12:24:11;;;;;;;7.53;2.47;;;25.30;96.10;;;;;;5074813;28;20415;-71
2022/06/07 12:26:37;;;;;;;5.27;2.40;;;25.30;96.90;;;;;;5088676;28;20383;-70
2022/06/07 12:29:21;;;;;;;4.73;1.80;;;25.60;96.90;;;;;;5091672;28;20518;-70
2022/06/07 12:32:06;;;;;;;2.43;1.90;;;25.70;96.90;;;;;;5090835;28;20208;-69
2022/06/07 12:34:35;;;;;;;6.00;2.07;;;25.40;96.50;;;;;;5074191;28;20459;-70
2022/06/07 12:37:03;;;;;;;2.53;1.90;;;25.80;96.60;;;;;;5091457;28;20463;-68
2022/06/07 12:39:31;;;;;;;5.50;2.50;;;25.60;96.10;;;;;;5108553;22;20499;-71
2022/06/07 12:42:06;;;;;;;6.60;2.70;;;25.80;96.40;;;;;;5053910;28;20486;-73
2022/06/07 12:44:37;;;;;;;10.90;2.47;;;26.00;96.50;;;;;;5053526;28;20689;-72
2022/06/07 12:47:05;;;;;;;22.13;4.17;;;26.20;97.20;;;;;;5054066;28;20389;-75
2022/06/07 12:49:46;;;;;;;2.80;2.07;;;25.90;95.70;;;;;;5053840;28;20514;-71
2022/06/07 12:52:18;;;;;;;11.20;3.70;;;25.50;95.20;;;;;;5054175;28;20385;-73
2022/06/07 12:54:53;;;;;;;5.10;2.57;;;25.60;95.20;;;;;;5054118;28;20445;-73
2022/06/07 12:57:24;;;;;;;2.30;1.70;;;25.20;96.00;;;;;;5052313;28;20419;-74
2022/06/07 13:00:00;;;;;;;5.63;2.27;;;25.30;97.40;;;;;;5057419;28;20789;-72
2022/06/07 13:02:34;;;;;;;2.83;1.80;;;25.20;96.50;;;;;;5077730;28;20400;-76
2022/06/07 13:05:16;;;;;;;4.00;1.67;;;25.00;95.70;;;;;;5077939;28;20438;-74
2022/06/07 13:08:02;;;;;;;9.03;2.07;;;24.90;95.40;;;;;;5075159;28;20393;-73
2022/06/07 13:10:32;;;;;;;2.67;1.50;;;25.20;95.60;;;;;;5075418;28;20432;-73
2022/06/07 13:13:01;;;;;;;39.63;3.67;;;25.50;94.30;;;;;;5076655;28;20408;-73
2022/06/07 13:15:30;;;;;;;2.47;1.90;;;25.90;95.50;;;;;;5058218;28;20548;-73
2022/06/07 13:18:05;;;;;;;2.23;1.40;;;25.90;95.00;;;;;;5054854;28;20516;-73
2022/06/07 13:20:36;;;;;;;2.90;1.53;;;25.80;93.70;;;;;;5054446;28;20431;-72
2022/06/07 13:23:11;;;;;;;12.03;2.40;;;25.60;93.70;;;;;;5054820;28;20426;-76
2022/06/07 13:25:37;;;;;;;4.90;2.00;;;25.70;93.50;;;;;;5037560;28;20459;-73
2022/06/07 13:28:06;;;;;;;9.43;2.00;;;25.60;92.90;;;;;;5038895;28;20994;-72
2022/06/07 13:30:32;;;;;;;11.70;1.97;;;25.50;93.20;;;;;;5039258;28;20192;-73
2022/06/07 13:33:18;;;;;;;2.90;1.60;;;25.60;93.20;;;;;;5038515;28;20417;-72